SBI5217 UNNT-UIBB
Flight info
| Callsign | SBI5217 |
|---|---|
| Flight time | 1h 38m |
| Altitude | 35000 |
| Route | N0450F350 OGATI A308 RISPA A822 LAPAK B151 ASBOK |
| Aircraft | A320/M-SDE3FGHIRWY/LB1 |
Departure
| Time | 2026-05-04 19:17 |
|---|---|
| Airport | Novosibirsk Tolmachevo Airport (UNNT) |
Arrival
| Time | 2026-05-04 20:55 |
|---|---|
| Airport | Bratsk Airport (UIBB) |
| Time | Latitude | Longitude | Altitude | Speed | Heading |
|---|---|---|---|---|---|
| 2026-05-04 18:34 | 55.00956 | 82.66474 | 373 ft | 0 kts | 171° |
| 2026-05-04 19:05 | 55.00975 | 82.66468 | 373 ft | 4 kts | 166° |
| 2026-05-04 19:05 | 55.01001 | 82.66455 | 373 ft | 4 kts | 163° |
| 2026-05-04 19:05 | 55.01026 | 82.66446 | 373 ft | 4 kts | 193° |
| 2026-05-04 19:06 | 55.01036 | 82.66453 | 373 ft | 2 kts | 243° |
| 2026-05-04 19:06 | 55.01048 | 82.66485 | 373 ft | 4 kts | 218° |
| 2026-05-04 19:06 | 55.01070 | 82.66498 | 373 ft | 4 kts | 164° |
| 2026-05-04 19:06 | 55.01094 | 82.66480 | 373 ft | 4 kts | 161° |
| 2026-05-04 19:07 | 55.01103 | 82.66476 | 373 ft | 0 kts | 171° |
| 2026-05-04 19:13 | 55.01089 | 82.66479 | 373 ft | 6 kts | 172° |
| 2026-05-04 19:13 | 55.01056 | 82.66520 | 373 ft | 8 kts | 96° |
| 2026-05-04 19:13 | 55.01084 | 82.66634 | 373 ft | 10 kts | 49° |
| 2026-05-04 19:14 | 55.01142 | 82.66652 | 373 ft | 8 kts | 355° |
| 2026-05-04 19:14 | 55.01192 | 82.66641 | 373 ft | 7 kts | 351° |
| 2026-05-04 19:14 | 55.01233 | 82.66629 | 373 ft | 5 kts | 351° |
| 2026-05-04 19:14 | 55.01265 | 82.66620 | 373 ft | 4 kts | 351° |
| 2026-05-04 19:15 | 55.01290 | 82.66614 | 373 ft | 3 kts | 351° |
| 2026-05-04 19:15 | 55.01333 | 82.66602 | 374 ft | 9 kts | 351° |
| 2026-05-04 19:15 | 55.01378 | 82.66551 | 375 ft | 0 kts | 267° |
| 2026-05-04 19:16 | 55.01364 | 82.66397 | 374 ft | 46 kts | 261° |
| 2026-05-04 19:17 | 55.01274 | 82.65411 | 373 ft | 115 kts | 261° |
| 2026-05-04 19:17 | 55.01120 | 82.63723 | 378 ft | 166 kts | 260° |
| 2026-05-04 19:17 | 55.00949 | 82.61650 | 916 ft | 172 kts | 261° |
| 2026-05-04 19:17 | 55.00770 | 82.59604 | 1732 ft | 171 kts | 259° |
| 2026-05-04 19:18 | 55.00572 | 82.57459 | 2156 ft | 189 kts | 259° |
| 2026-05-04 19:18 | 55.00350 | 82.55078 | 2567 ft | 207 kts | 259° |
| 2026-05-04 19:18 | 55.00354 | 82.52557 | 3062 ft | 226 kts | 285° |
| 2026-05-04 19:18 | 55.01258 | 82.50306 | 3014 ft | 233 kts | 326° |
| 2026-05-04 19:19 | 55.02812 | 82.49509 | 3001 ft | 238 kts | 356° |
| 2026-05-04 19:19 | 55.04470 | 82.49655 | 3003 ft | 240 kts | 5° |
| 2026-05-04 19:19 | 55.06131 | 82.50041 | 3011 ft | 241 kts | 7° |
| 2026-05-04 19:19 | 55.07799 | 82.50786 | 3116 ft | 262 kts | 27° |
| 2026-05-04 19:20 | 55.09174 | 82.52931 | 3873 ft | 273 kts | 57° |
| 2026-05-04 19:20 | 55.09809 | 82.56015 | 4734 ft | 278 kts | 82° |
| 2026-05-04 19:20 | 55.10088 | 82.59366 | 5690 ft | 280 kts | 83° |
| 2026-05-04 19:20 | 55.10352 | 82.62757 | 6586 ft | 284 kts | 83° |
| 2026-05-04 19:21 | 55.10612 | 82.66193 | 7409 ft | 288 kts | 82° |
| 2026-05-04 19:21 | 55.10880 | 82.69688 | 8249 ft | 292 kts | 82° |
| 2026-05-04 19:21 | 55.11152 | 82.73225 | 9059 ft | 296 kts | 82° |
| 2026-05-04 19:21 | 55.11432 | 82.76826 | 9878 ft | 301 kts | 82° |
| 2026-05-04 19:22 | 55.11714 | 82.80492 | 10514 ft | 312 kts | 82° |
| 2026-05-04 19:22 | 55.12016 | 82.84395 | 10764 ft | 336 kts | 82° |
| 2026-05-04 19:22 | 55.12334 | 82.88518 | 10999 ft | 357 kts | 81° |
| 2026-05-04 19:22 | 55.12669 | 82.92886 | 11564 ft | 366 kts | 81° |
| 2026-05-04 19:23 | 55.13005 | 82.97315 | 12254 ft | 370 kts | 81° |
| 2026-05-04 19:23 | 55.13340 | 83.01799 | 12959 ft | 375 kts | 81° |
| 2026-05-04 19:23 | 55.13679 | 83.06337 | 13672 ft | 379 kts | 81° |
| 2026-05-04 19:23 | 55.14020 | 83.10924 | 14319 ft | 382 kts | 81° |
| 2026-05-04 19:24 | 55.14366 | 83.15554 | 14926 ft | 386 kts | 81° |
| 2026-05-04 19:24 | 55.14711 | 83.20171 | 15531 ft | 390 kts | 81° |
| 2026-05-04 19:24 | 55.15056 | 83.24886 | 16137 ft | 394 kts | 81° |
| 2026-05-04 19:24 | 55.15403 | 83.29657 | 16727 ft | 397 kts | 81° |
| 2026-05-04 19:25 | 55.15752 | 83.34469 | 17317 ft | 401 kts | 81° |
| 2026-05-04 19:25 | 55.16105 | 83.39328 | 17894 ft | 405 kts | 81° |
| 2026-05-04 19:25 | 55.16465 | 83.44223 | 18495 ft | 407 kts | 80° |
| 2026-05-04 19:25 | 55.16822 | 83.49162 | 19004 ft | 410 kts | 80° |
| 2026-05-04 19:26 | 55.17177 | 83.54132 | 19498 ft | 413 kts | 80° |
| 2026-05-04 19:26 | 55.17529 | 83.59142 | 19987 ft | 417 kts | 80° |
| 2026-05-04 19:26 | 55.17881 | 83.64191 | 20471 ft | 420 kts | 80° |
| 2026-05-04 19:26 | 55.18230 | 83.69217 | 20944 ft | 423 kts | 80° |
| 2026-05-04 19:27 | 55.18585 | 83.74343 | 21409 ft | 426 kts | 80° |
| 2026-05-04 19:27 | 55.18941 | 83.79510 | 21870 ft | 429 kts | 80° |
| 2026-05-04 19:27 | 55.19298 | 83.84714 | 22330 ft | 432 kts | 80° |
| 2026-05-04 19:27 | 55.19656 | 83.89961 | 22779 ft | 436 kts | 80° |
| 2026-05-04 19:28 | 55.20015 | 83.95247 | 23228 ft | 439 kts | 80° |
| 2026-05-04 19:28 | 55.20375 | 84.00580 | 23677 ft | 442 kts | 80° |
| 2026-05-04 19:28 | 55.20734 | 84.05940 | 24060 ft | 445 kts | 80° |
| 2026-05-04 19:28 | 55.21084 | 84.11254 | 24425 ft | 447 kts | 81° |
| 2026-05-04 19:29 | 55.21435 | 84.16677 | 24788 ft | 449 kts | 80° |
| 2026-05-04 19:29 | 55.21792 | 84.22121 | 25131 ft | 452 kts | 80° |
| 2026-05-04 19:29 | 55.22154 | 84.27608 | 25488 ft | 454 kts | 80° |
| 2026-05-04 19:29 | 55.22514 | 84.33113 | 25833 ft | 456 kts | 80° |
| 2026-05-04 19:30 | 55.22871 | 84.38647 | 26179 ft | 459 kts | 81° |
| 2026-05-04 19:30 | 55.23224 | 84.44221 | 26523 ft | 461 kts | 81° |
| 2026-05-04 19:30 | 55.23574 | 84.49810 | 26895 ft | 463 kts | 80° |
| 2026-05-04 19:30 | 55.23917 | 84.55344 | 27245 ft | 464 kts | 80° |
| 2026-05-04 19:31 | 55.24266 | 84.60981 | 27580 ft | 466 kts | 80° |
| 2026-05-04 19:31 | 55.24617 | 84.66660 | 27907 ft | 469 kts | 80° |
| 2026-05-04 19:31 | 55.24970 | 84.72348 | 28229 ft | 471 kts | 80° |
| 2026-05-04 19:31 | 55.25321 | 84.78061 | 28529 ft | 473 kts | 80° |
| 2026-05-04 19:32 | 55.25669 | 84.83802 | 28812 ft | 475 kts | 80° |
| 2026-05-04 19:32 | 55.26014 | 84.89578 | 29103 ft | 477 kts | 81° |
| 2026-05-04 19:32 | 55.26355 | 84.95370 | 29395 ft | 479 kts | 81° |
| 2026-05-04 19:32 | 55.26691 | 85.01107 | 29667 ft | 481 kts | 81° |
| 2026-05-04 19:33 | 55.27030 | 85.06947 | 30027 ft | 481 kts | 80° |
| 2026-05-04 19:33 | 55.27366 | 85.12776 | 30435 ft | 480 kts | 80° |
| 2026-05-04 19:33 | 55.27701 | 85.18591 | 30794 ft | 478 kts | 81° |
| 2026-05-04 19:33 | 55.28032 | 85.24387 | 31132 ft | 477 kts | 81° |
| 2026-05-04 19:34 | 55.28359 | 85.30181 | 31483 ft | 477 kts | 81° |
| 2026-05-04 19:34 | 55.28683 | 85.35965 | 31840 ft | 476 kts | 81° |
| 2026-05-04 19:34 | 55.29003 | 85.41734 | 32195 ft | 475 kts | 81° |
| 2026-05-04 19:34 | 55.29316 | 85.47489 | 32541 ft | 473 kts | 81° |
| 2026-05-04 19:35 | 55.29619 | 85.53155 | 32881 ft | 473 kts | 81° |
| 2026-05-04 19:35 | 55.29924 | 85.58891 | 33257 ft | 472 kts | 80° |
| 2026-05-04 19:35 | 55.30229 | 85.64611 | 33640 ft | 470 kts | 80° |
| 2026-05-04 19:35 | 55.30533 | 85.70320 | 34007 ft | 468 kts | 80° |
| 2026-05-04 19:36 | 55.30836 | 85.75997 | 34336 ft | 467 kts | 80° |
| 2026-05-04 19:36 | 55.31138 | 85.81679 | 34606 ft | 467 kts | 80° |
| 2026-05-04 19:36 | 55.31434 | 85.87362 | 34868 ft | 467 kts | 81° |
| 2026-05-04 19:36 | 55.31724 | 85.93047 | 35089 ft | 468 kts | 81° |
| 2026-05-04 19:37 | 55.32007 | 85.98662 | 35159 ft | 469 kts | 81° |
| 2026-05-04 19:37 | 55.32576 | 86.10085 | 35166 ft | 470 kts | 81° |
| 2026-05-04 19:38 | 55.33140 | 86.21497 | 35165 ft | 469 kts | 80° |
| 2026-05-04 19:38 | 55.33696 | 86.32923 | 35157 ft | 469 kts | 80° |
| 2026-05-04 19:39 | 55.34238 | 86.44342 | 35158 ft | 469 kts | 81° |
| 2026-05-04 19:39 | 55.34759 | 86.55701 | 35163 ft | 469 kts | 81° |
| 2026-05-04 19:40 | 55.35273 | 86.67129 | 35160 ft | 469 kts | 81° |
| 2026-05-04 19:40 | 55.35784 | 86.78577 | 35182 ft | 470 kts | 80° |
| 2026-05-04 19:41 | 55.36276 | 86.89921 | 35176 ft | 470 kts | 80° |
| 2026-05-04 19:41 | 55.36765 | 87.01391 | 35178 ft | 470 kts | 81° |
| 2026-05-04 19:42 | 55.37244 | 87.12857 | 35182 ft | 470 kts | 81° |
| 2026-05-04 19:42 | 55.37703 | 87.24305 | 35214 ft | 470 kts | 80° |
| 2026-05-04 19:43 | 55.38158 | 87.35797 | 35207 ft | 470 kts | 80° |
| 2026-05-04 19:43 | 55.38604 | 87.47188 | 35199 ft | 470 kts | 80° |
| 2026-05-04 19:44 | 55.39040 | 87.58656 | 35202 ft | 470 kts | 80° |
| 2026-05-04 19:44 | 55.39459 | 87.70159 | 35199 ft | 471 kts | 81° |
| 2026-05-04 19:45 | 55.39863 | 87.81662 | 35241 ft | 471 kts | 80° |
| 2026-05-04 19:45 | 55.40260 | 87.93087 | 35221 ft | 471 kts | 80° |
| 2026-05-04 19:46 | 55.40660 | 88.04599 | 35228 ft | 471 kts | 80° |
| 2026-05-04 19:46 | 55.41045 | 88.16106 | 35224 ft | 472 kts | 81° |
| 2026-05-04 19:47 | 55.41410 | 88.27639 | 35222 ft | 472 kts | 81° |
| 2026-05-04 19:47 | 55.41766 | 88.39084 | 35258 ft | 472 kts | 80° |
| 2026-05-04 19:48 | 55.42116 | 88.50613 | 35239 ft | 472 kts | 80° |
| 2026-05-04 19:48 | 55.42459 | 88.62142 | 35238 ft | 472 kts | 81° |
| 2026-05-04 19:49 | 55.42791 | 88.73678 | 35230 ft | 472 kts | 81° |
| 2026-05-04 19:49 | 55.43099 | 88.85131 | 35224 ft | 472 kts | 81° |
| 2026-05-04 19:50 | 55.43439 | 88.96669 | 35254 ft | 471 kts | 79° |
| 2026-05-04 19:50 | 55.43978 | 89.08139 | 35241 ft | 469 kts | 78° |
| 2026-05-04 19:51 | 55.44572 | 89.19592 | 35230 ft | 470 kts | 78° |
| 2026-05-04 19:51 | 55.45120 | 89.31078 | 35227 ft | 471 kts | 78° |
| 2026-05-04 19:52 | 55.45612 | 89.42496 | 35224 ft | 471 kts | 79° |
| 2026-05-04 19:52 | 55.46089 | 89.54008 | 35221 ft | 471 kts | 79° |
| 2026-05-04 19:53 | 55.46569 | 89.65526 | 35225 ft | 471 kts | 79° |
| 2026-05-04 19:53 | 55.47039 | 89.76962 | 35229 ft | 471 kts | 79° |
| 2026-05-04 19:54 | 55.47511 | 89.88483 | 35223 ft | 470 kts | 78° |
| 2026-05-04 19:54 | 55.48252 | 89.99894 | 35254 ft | 467 kts | 75° |
| 2026-05-04 19:55 | 55.49242 | 90.11191 | 35231 ft | 466 kts | 73° |
| 2026-05-04 19:55 | 55.50223 | 90.22505 | 35223 ft | 467 kts | 74° |
| 2026-05-04 19:56 | 55.51101 | 90.33797 | 35220 ft | 468 kts | 75° |
| 2026-05-04 19:56 | 55.51936 | 90.45208 | 35207 ft | 469 kts | 75° |
| 2026-05-04 19:57 | 55.52774 | 90.56611 | 35264 ft | 469 kts | 75° |
| 2026-05-04 19:57 | 55.53618 | 90.68006 | 35194 ft | 467 kts | 75° |
| 2026-05-04 19:58 | 55.54452 | 90.79309 | 35188 ft | 468 kts | 75° |
| 2026-05-04 19:58 | 55.55279 | 90.90714 | 35191 ft | 469 kts | 75° |
| 2026-05-04 19:59 | 55.56092 | 91.02150 | 35192 ft | 469 kts | 76° |
| 2026-05-04 19:59 | 55.56898 | 91.13587 | 35229 ft | 469 kts | 76° |
| 2026-05-04 20:00 | 55.57683 | 91.24958 | 35214 ft | 469 kts | 76° |
| 2026-05-04 20:00 | 55.58468 | 91.36414 | 35202 ft | 470 kts | 76° |
| 2026-05-04 20:01 | 55.59247 | 91.47890 | 35202 ft | 470 kts | 76° |
| 2026-05-04 20:01 | 55.60009 | 91.59376 | 35196 ft | 470 kts | 76° |
| 2026-05-04 20:02 | 55.60761 | 91.70791 | 35215 ft | 470 kts | 76° |
| 2026-05-04 20:02 | 55.61503 | 91.82281 | 35196 ft | 470 kts | 76° |
| 2026-05-04 20:03 | 55.62233 | 91.93781 | 35181 ft | 470 kts | 77° |
| 2026-05-04 20:03 | 55.62948 | 92.05298 | 35181 ft | 471 kts | 77° |
| 2026-05-04 20:04 | 55.63653 | 92.16733 | 35180 ft | 471 kts | 77° |
| 2026-05-04 20:04 | 55.64356 | 92.28257 | 35211 ft | 471 kts | 77° |
| 2026-05-04 20:05 | 55.65049 | 92.39770 | 35198 ft | 471 kts | 77° |
| 2026-05-04 20:05 | 55.65725 | 92.51305 | 35189 ft | 471 kts | 77° |
| 2026-05-04 20:06 | 55.66386 | 92.62760 | 35186 ft | 471 kts | 77° |
| 2026-05-04 20:06 | 55.67038 | 92.74288 | 35180 ft | 471 kts | 77° |
| 2026-05-04 20:07 | 55.67682 | 92.85835 | 35206 ft | 471 kts | 78° |
| 2026-05-04 20:07 | 55.68319 | 92.97392 | 35198 ft | 471 kts | 78° |
| 2026-05-04 20:08 | 55.68949 | 93.08881 | 35186 ft | 472 kts | 78° |
| 2026-05-04 20:08 | 55.69556 | 93.20458 | 35189 ft | 472 kts | 78° |
| 2026-05-04 20:09 | 55.70153 | 93.32053 | 35183 ft | 472 kts | 78° |
| 2026-05-04 20:09 | 55.70754 | 93.43638 | 35215 ft | 472 kts | 79° |
| 2026-05-04 20:10 | 55.71337 | 93.55155 | 35202 ft | 473 kts | 79° |
| 2026-05-04 20:10 | 55.71905 | 93.66774 | 35202 ft | 473 kts | 79° |
| 2026-05-04 20:11 | 55.72455 | 93.78397 | 35203 ft | 473 kts | 79° |
| 2026-05-04 20:11 | 55.73009 | 93.90021 | 35216 ft | 473 kts | 79° |
| 2026-05-04 20:12 | 55.73550 | 94.01574 | 35226 ft | 473 kts | 80° |
| 2026-05-04 20:12 | 55.74084 | 94.13217 | 35220 ft | 474 kts | 80° |
| 2026-05-04 20:13 | 55.74601 | 94.24871 | 35213 ft | 473 kts | 81° |
| 2026-05-04 20:13 | 55.75099 | 94.36523 | 35210 ft | 473 kts | 81° |
| 2026-05-04 20:14 | 55.75593 | 94.48164 | 35204 ft | 473 kts | 81° |
| 2026-05-04 20:14 | 55.76083 | 94.59740 | 35220 ft | 473 kts | 81° |
| 2026-05-04 20:15 | 55.76557 | 94.71399 | 35213 ft | 474 kts | 81° |
| 2026-05-04 20:15 | 55.77017 | 94.83069 | 35211 ft | 474 kts | 81° |
| 2026-05-04 20:16 | 55.77475 | 94.94754 | 35207 ft | 474 kts | 81° |
| 2026-05-04 20:16 | 55.77919 | 95.06355 | 35205 ft | 474 kts | 82° |
| 2026-05-04 20:17 | 55.78560 | 95.17973 | 35200 ft | 471 kts | 77° |
| 2026-05-04 20:17 | 55.79569 | 95.29459 | 35199 ft | 470 kts | 76° |
| 2026-05-04 20:18 | 55.80616 | 95.40904 | 35196 ft | 470 kts | 76° |
| 2026-05-04 20:18 | 55.81619 | 95.52330 | 35191 ft | 470 kts | 76° |
| 2026-05-04 20:19 | 55.82592 | 95.63824 | 35214 ft | 470 kts | 77° |
| 2026-05-04 20:19 | 55.83562 | 95.75348 | 35197 ft | 471 kts | 77° |
| 2026-05-04 20:20 | 55.84534 | 95.86870 | 35198 ft | 471 kts | 77° |
| 2026-05-04 20:20 | 55.85492 | 95.98411 | 35189 ft | 472 kts | 77° |
| 2026-05-04 20:21 | 55.86423 | 96.09880 | 35194 ft | 471 kts | 77° |
| 2026-05-04 20:21 | 55.87819 | 96.27256 | 35208 ft | 472 kts | 78° |
| 2026-05-04 20:22 | 55.88729 | 96.38758 | 35220 ft | 472 kts | 78° |
| 2026-05-04 20:22 | 55.89622 | 96.50319 | 35215 ft | 472 kts | 78° |
| 2026-05-04 20:23 | 55.90508 | 96.61865 | 35204 ft | 472 kts | 78° |
| 2026-05-04 20:23 | 55.91399 | 96.73452 | 35202 ft | 472 kts | 78° |
| 2026-05-04 20:24 | 55.92269 | 96.85034 | 35218 ft | 472 kts | 78° |
| 2026-05-04 20:24 | 55.93127 | 96.96628 | 35206 ft | 472 kts | 78° |
| 2026-05-04 20:25 | 55.93974 | 97.08140 | 35200 ft | 471 kts | 79° |
| 2026-05-04 20:25 | 55.94820 | 97.19754 | 35197 ft | 472 kts | 79° |
| 2026-05-04 20:26 | 55.95648 | 97.31369 | 35191 ft | 472 kts | 79° |
| 2026-05-04 20:26 | 55.96461 | 97.42990 | 35202 ft | 472 kts | 79° |
| 2026-05-04 20:27 | 55.97258 | 97.54531 | 35195 ft | 472 kts | 79° |
| 2026-05-04 20:27 | 55.98055 | 97.66166 | 35189 ft | 472 kts | 79° |
| 2026-05-04 20:28 | 55.98837 | 97.77798 | 35182 ft | 472 kts | 79° |
| 2026-05-04 20:28 | 55.99615 | 97.89446 | 35180 ft | 472 kts | 79° |
| 2026-05-04 20:29 | 56.00378 | 98.01094 | 35192 ft | 472 kts | 80° |
| 2026-05-04 20:29 | 56.01124 | 98.12660 | 35185 ft | 472 kts | 80° |
| 2026-05-04 20:30 | 56.01859 | 98.24312 | 35179 ft | 472 kts | 80° |
| 2026-05-04 20:30 | 56.02590 | 98.35967 | 35177 ft | 472 kts | 80° |
| 2026-05-04 20:31 | 56.03309 | 98.47628 | 35181 ft | 472 kts | 81° |
| 2026-05-04 20:31 | 56.04010 | 98.59207 | 35193 ft | 471 kts | 81° |
| 2026-05-04 20:32 | 56.04708 | 98.70871 | 35177 ft | 471 kts | 81° |
| 2026-05-04 20:32 | 56.05394 | 98.82515 | 35162 ft | 471 kts | 81° |
| 2026-05-04 20:33 | 56.06069 | 98.94175 | 35159 ft | 471 kts | 81° |
| 2026-05-04 20:33 | 56.06725 | 99.05737 | 35157 ft | 471 kts | 81° |
| 2026-05-04 20:34 | 56.07376 | 99.17410 | 35169 ft | 471 kts | 81° |
| 2026-05-04 20:34 | 56.08014 | 99.29068 | 35159 ft | 471 kts | 81° |
| 2026-05-04 20:35 | 56.08644 | 99.40724 | 35072 ft | 471 kts | 81° |
| 2026-05-04 20:35 | 56.08951 | 99.46486 | 34843 ft | 470 kts | 81° |
| 2026-05-04 20:35 | 56.09257 | 99.52296 | 34319 ft | 472 kts | 82° |
| 2026-05-04 20:36 | 56.09565 | 99.58211 | 33154 ft | 480 kts | 82° |
| 2026-05-04 20:36 | 56.09872 | 99.64176 | 32167 ft | 482 kts | 82° |
| 2026-05-04 20:36 | 56.10175 | 99.70148 | 31450 ft | 479 kts | 83° |
| 2026-05-04 20:36 | 56.10473 | 99.76043 | 30305 ft | 473 kts | 83° |
| 2026-05-04 20:37 | 56.10767 | 99.81943 | 28839 ft | 476 kts | 83° |
| 2026-05-04 20:37 | 56.11056 | 99.87765 | 28436 ft | 463 kts | 83° |
| 2026-05-04 20:37 | 56.11338 | 99.93470 | 27725 ft | 456 kts | 82° |
| 2026-05-04 20:37 | 56.11610 | 99.99017 | 27066 ft | 451 kts | 82° |
| 2026-05-04 20:38 | 56.11881 | 100.04583 | 26384 ft | 446 kts | 82° |
| 2026-05-04 20:38 | 56.12145 | 100.10091 | 25711 ft | 441 kts | 82° |
| 2026-05-04 20:38 | 56.12404 | 100.15549 | 25059 ft | 438 kts | 82° |
| 2026-05-04 20:38 | 56.12662 | 100.20963 | 24412 ft | 434 kts | 82° |
| 2026-05-04 20:39 | 56.12917 | 100.26329 | 23773 ft | 430 kts | 82° |
| 2026-05-04 20:39 | 56.13165 | 100.31656 | 23091 ft | 427 kts | 82° |
| 2026-05-04 20:39 | 56.13406 | 100.36927 | 22486 ft | 421 kts | 82° |
| 2026-05-04 20:39 | 56.13635 | 100.42050 | 21932 ft | 415 kts | 82° |
| 2026-05-04 20:40 | 56.13860 | 100.47176 | 21405 ft | 410 kts | 82° |
| 2026-05-04 20:40 | 56.14081 | 100.52233 | 20883 ft | 404 kts | 82° |
| 2026-05-04 20:40 | 56.14300 | 100.57229 | 20368 ft | 399 kts | 83° |
| 2026-05-04 20:40 | 56.14515 | 100.62156 | 19891 ft | 394 kts | 83° |
| 2026-05-04 20:41 | 56.14728 | 100.67023 | 19415 ft | 389 kts | 83° |
| 2026-05-04 20:41 | 56.14935 | 100.71828 | 18943 ft | 385 kts | 83° |
| 2026-05-04 20:41 | 56.15139 | 100.76591 | 18467 ft | 382 kts | 83° |
| 2026-05-04 20:41 | 56.15337 | 100.81257 | 17923 ft | 379 kts | 83° |
| 2026-05-04 20:42 | 56.15532 | 100.85945 | 17424 ft | 375 kts | 84° |
| 2026-05-04 20:42 | 56.15722 | 100.90578 | 16933 ft | 371 kts | 84° |
| 2026-05-04 20:42 | 56.15912 | 100.95183 | 16435 ft | 369 kts | 84° |
| 2026-05-04 20:42 | 56.16099 | 100.99763 | 15934 ft | 367 kts | 84° |
| 2026-05-04 20:43 | 56.16281 | 101.04314 | 15405 ft | 365 kts | 84° |
| 2026-05-04 20:43 | 56.16458 | 101.08851 | 14889 ft | 364 kts | 85° |
| 2026-05-04 20:43 | 56.16636 | 101.13373 | 14379 ft | 362 kts | 85° |
| 2026-05-04 20:43 | 56.16811 | 101.17822 | 13867 ft | 362 kts | 85° |
| 2026-05-04 20:44 | 56.16985 | 101.22324 | 13302 ft | 361 kts | 85° |
| 2026-05-04 20:44 | 56.17154 | 101.26785 | 12783 ft | 357 kts | 85° |
| 2026-05-04 20:44 | 56.17321 | 101.31221 | 12248 ft | 355 kts | 84° |
| 2026-05-04 20:44 | 56.17487 | 101.35614 | 11722 ft | 352 kts | 84° |
| 2026-05-04 20:45 | 56.17654 | 101.39972 | 11178 ft | 349 kts | 84° |
| 2026-05-04 20:45 | 56.17819 | 101.44307 | 10701 ft | 346 kts | 84° |
| 2026-05-04 20:45 | 56.17975 | 101.48532 | 10542 ft | 333 kts | 84° |
| 2026-05-04 20:45 | 56.18120 | 101.52567 | 10507 ft | 317 kts | 84° |
| 2026-05-04 20:46 | 56.18256 | 101.56391 | 10382 ft | 306 kts | 84° |
| 2026-05-04 20:46 | 56.18387 | 101.60134 | 10213 ft | 296 kts | 84° |
| 2026-05-04 20:46 | 56.18516 | 101.63798 | 10026 ft | 291 kts | 84° |
| 2026-05-04 20:46 | 56.18641 | 101.67382 | 9928 ft | 283 kts | 84° |
| 2026-05-04 20:47 | 56.18762 | 101.70888 | 9506 ft | 278 kts | 84° |
| 2026-05-04 20:47 | 56.18878 | 101.74272 | 9147 ft | 266 kts | 84° |
| 2026-05-04 20:47 | 56.18985 | 101.77517 | 8802 ft | 255 kts | 84° |
| 2026-05-04 20:47 | 56.19090 | 101.80631 | 8471 ft | 245 kts | 84° |
| 2026-05-04 20:48 | 56.19193 | 101.83665 | 8153 ft | 243 kts | 84° |
| 2026-05-04 20:48 | 56.19294 | 101.86651 | 7836 ft | 242 kts | 84° |
| 2026-05-04 20:48 | 56.19395 | 101.89650 | 7519 ft | 238 kts | 82° |
| 2026-05-04 20:48 | 56.19753 | 101.92494 | 7205 ft | 231 kts | 63° |
| 2026-05-04 20:49 | 56.20598 | 101.94900 | 6899 ft | 227 kts | 44° |
| 2026-05-04 20:49 | 56.21800 | 101.96658 | 6629 ft | 221 kts | 25° |
| 2026-05-04 20:49 | 56.23180 | 101.97844 | 6337 ft | 219 kts | 21° |
| 2026-05-04 20:49 | 56.24558 | 101.98999 | 6035 ft | 218 kts | 21° |
| 2026-05-04 20:50 | 56.25922 | 102.00147 | 5699 ft | 212 kts | 21° |
| 2026-05-04 20:50 | 56.27219 | 102.01240 | 5428 ft | 206 kts | 20° |
| 2026-05-04 20:50 | 56.28494 | 102.02307 | 5159 ft | 198 kts | 18° |
| 2026-05-04 20:50 | 56.29784 | 102.02556 | 4934 ft | 184 kts | 340° |
| 2026-05-04 20:51 | 56.30768 | 102.01206 | 4721 ft | 182 kts | 300° |
| 2026-05-04 20:51 | 56.31000 | 101.99039 | 4525 ft | 177 kts | 270° |
| 2026-05-04 20:51 | 56.30956 | 101.96868 | 4312 ft | 170 kts | 276° |
| 2026-05-04 20:51 | 56.31060 | 101.94794 | 4110 ft | 164 kts | 283° |
| 2026-05-04 20:52 | 56.31313 | 101.92836 | 3918 ft | 158 kts | 291° |
| 2026-05-04 20:52 | 56.31663 | 101.91033 | 3754 ft | 150 kts | 295° |
| 2026-05-04 20:52 | 56.32045 | 101.89376 | 3682 ft | 139 kts | 297° |
| 2026-05-04 20:52 | 56.32432 | 101.87807 | 3561 ft | 135 kts | 298° |
| 2026-05-04 20:53 | 56.32817 | 101.86285 | 3401 ft | 133 kts | 299° |
| 2026-05-04 20:53 | 56.33203 | 101.84778 | 3227 ft | 132 kts | 299° |
| 2026-05-04 20:53 | 56.33587 | 101.83289 | 3042 ft | 131 kts | 299° |
| 2026-05-04 20:53 | 56.33973 | 101.81801 | 2860 ft | 130 kts | 298° |
| 2026-05-04 20:54 | 56.34349 | 101.80343 | 2678 ft | 129 kts | 299° |
| 2026-05-04 20:54 | 56.34731 | 101.78873 | 2496 ft | 130 kts | 296° |
| 2026-05-04 20:54 | 56.35115 | 101.77382 | 2294 ft | 132 kts | 296° |
| 2026-05-04 20:54 | 56.35503 | 101.75881 | 2098 ft | 131 kts | 295° |
| 2026-05-04 20:55 | 56.35888 | 101.74393 | 1920 ft | 131 kts | 295° |
| 2026-05-04 20:55 | 56.36269 | 101.72894 | 1738 ft | 131 kts | 294° |
| 2026-05-04 20:55 | 56.36644 | 101.71427 | 1616 ft | 120 kts | 294° |
| 2026-05-04 20:55 | 56.36909 | 101.70416 | 1618 ft | 48 kts | 296° |
| 2026-05-04 20:56 | 56.36967 | 101.70199 | 1619 ft | 27 kts | 295° |
| 2026-05-04 20:56 | 56.37086 | 101.69735 | 1618 ft | 43 kts | 294° |
| 2026-05-04 20:56 | 56.37200 | 101.69274 | 1612 ft | 30 kts | 284° |
| 2026-05-04 20:56 | 56.37130 | 101.69054 | 1615 ft | 0 kts | 204° |
| 2026-05-04 20:57 | 56.37129 | 101.69053 | 1611 ft | 2 kts | 204° |
| 2026-05-04 20:57 | 56.37060 | 101.69058 | 1619 ft | 13 kts | 162° |
| 2026-05-04 20:57 | 56.36988 | 101.69125 | 1614 ft | 11 kts | 127° |
| 2026-05-04 20:57 | 56.36959 | 101.69243 | 1611 ft | 10 kts | 114° |
| 2026-05-04 20:58 | 56.36931 | 101.69349 | 1618 ft | 9 kts | 115° |
| 2026-05-04 20:58 | 56.36907 | 101.69442 | 1614 ft | 8 kts | 115° |
| 2026-05-04 20:58 | 56.36881 | 101.69545 | 1611 ft | 15 kts | 115° |
| 2026-05-04 20:58 | 56.36834 | 101.69729 | 1615 ft | 16 kts | 115° |
| 2026-05-04 20:59 | 56.36791 | 101.69897 | 1618 ft | 14 kts | 114° |
| 2026-05-04 20:59 | 56.36753 | 101.70047 | 1612 ft | 12 kts | 114° |
| 2026-05-04 20:59 | 56.36717 | 101.70179 | 1615 ft | 11 kts | 117° |
| 2026-05-04 20:59 | 56.36686 | 101.70293 | 1616 ft | 9 kts | 115° |
| 2026-05-04 21:00 | 56.36684 | 101.70298 | 1611 ft | 0 kts | 115° |
| 2026-05-04 21:00 | 56.36651 | 101.70300 | 1621 ft | 8 kts | 200° |
| 2026-05-04 21:00 | 56.36646 | 101.70296 | 1611 ft | 0 kts | 200° |
| 2026-05-04 21:01 | 56.36624 | 101.70279 | 1618 ft | 9 kts | 202° |
| 2026-05-04 21:01 | 56.36584 | 101.70299 | 1617 ft | 5 kts | 104° |
| 2026-05-04 21:01 | 56.36576 | 101.70335 | 1611 ft | 0 kts | 115° |